Time,TemperatureF,DewpointF,PressureIn,WindDirection,WindDirectionDegrees,WindSpeedMPH,WindSpeedGustMPH,Humidity,HourlyPrecipIn,Conditions,Clouds,dailyrainin,SoftwareType,DateUTC
2013-04-21 00:23:00,38.0,24.0,30.43,North,-999,-999.0,-999.0,56,-99.99,,,-99.99,,2013-04-21 04:23:00,
2013-04-21 00:33:00,38.0,24.0,30.43,North,-999,-999.0,-999.0,56,-99.99,,,-99.99,,2013-04-21 04:33:00,
2013-04-21 00:42:00,38.0,24.0,30.43,North,-999,-999.0,-999.0,56,-99.99,,,-99.99,,2013-04-21 04:42:00,
2013-04-21 01:22:00,38.0,23.0,30.45,North,-999,-999.0,-999.0,55,-99.99,,,-99.99,,2013-04-21 05:22:00,
2013-04-21 01:32:00,38.0,23.0,30.45,North,-999,-999.0,-999.0,55,-99.99,,,-99.99,,2013-04-21 05:32:00,
2013-04-21 01:42:00,38.0,23.0,30.45,North,-999,-999.0,-999.0,55,-99.99,,,-99.99,,2013-04-21 05:42:00,
2013-04-21 02:22:00,37.0,24.0,30.47,North,-999,-999.0,-999.0,57,-99.99,,,-99.99,,2013-04-21 06:22:00,
2013-04-21 02:32:00,37.0,24.0,30.47,North,-999,-999.0,-999.0,57,-99.99,,,-99.99,,2013-04-21 06:32:00,
2013-04-21 02:42:00,37.0,24.0,30.47,North,-999,-999.0,-999.0,57,-99.99,,,-99.99,,2013-04-21 06:42:00,
2013-04-21 03:22:00,36.0,25.0,30.48,North,-999,-999.0,-999.0,62,-99.99,,,-99.99,,2013-04-21 07:22:00,
2013-04-21 03:32:00,36.0,25.0,30.48,North,-999,-999.0,-999.0,62,-99.99,,,-99.99,,2013-04-21 07:32:00,
2013-04-21 03:42:00,36.0,25.0,30.48,North,-999,-999.0,-999.0,62,-99.99,,,-99.99,,2013-04-21 07:42:00,
2013-04-21 04:22:00,35.0,25.0,30.49,North,-999,-999.0,-999.0,64,-99.99,,,-99.99,,2013-04-21 08:22:00,
2013-04-21 04:32:00,35.0,25.0,30.49,North,-999,-999.0,-999.0,64,-99.99,,,-99.99,,2013-04-21 08:32:00,
2013-04-21 04:42:00,35.0,25.0,30.49,North,-999,-999.0,-999.0,64,-99.99,,,-99.99,,2013-04-21 08:42:00,
2013-04-21 05:21:00,35.0,25.0,30.51,North,-999,-999.0,-999.0,68,-99.99,,,-99.99,,2013-04-21 09:21:00,
2013-04-21 05:33:00,35.0,25.0,30.51,North,-999,-999.0,-999.0,68,-99.99,,,-99.99,,2013-04-21 09:33:00,
2013-04-21 05:43:00,35.0,25.0,30.51,North,-999,-999.0,-999.0,68,-99.99,,,-99.99,,2013-04-21 09:43:00,
2013-04-21 06:22:00,33.0,27.0,30.53,North,-999,-999.0,-999.0,77,-99.99,,,-99.99,,2013-04-21 10:22:00,
2013-04-21 06:32:00,33.0,27.0,30.53,North,-999,-999.0,-999.0,77,-99.99,,,-99.99,,2013-04-21 10:32:00,
2013-04-21 06:42:00,33.0,27.0,30.53,North,-999,-999.0,-999.0,77,-99.99,,,-99.99,,2013-04-21 10:42:00,
2013-04-21 07:22:00,33.0,27.0,30.55,North,-999,-999.0,-999.0,78,-99.99,,,-99.99,,2013-04-21 11:22:00,
2013-04-21 07:34:00,33.0,27.0,30.55,North,-999,-999.0,-999.0,78,-99.99,,,-99.99,,2013-04-21 11:34:00,
2013-04-21 07:42:00,33.0,27.0,30.55,North,-999,-999.0,-999.0,78,-99.99,,,-99.99,,2013-04-21 11:42:00,
2013-04-21 08:22:00,35.0,27.0,30.59,North,-999,-999.0,-999.0,73,-99.99,,,-99.99,,2013-04-21 12:22:00,
2013-04-21 08:32:00,35.0,27.0,30.59,North,-999,-999.0,-999.0,73,-99.99,,,-99.99,,2013-04-21 12:32:00,
2013-04-21 08:42:00,35.0,27.0,30.59,North,-999,-999.0,-999.0,73,-99.99,,,-99.99,,2013-04-21 12:42:00,
2013-04-21 09:22:00,37.0,26.0,30.61,North,-999,-999.0,-999.0,64,-99.99,,,-99.99,,2013-04-21 13:22:00,
2013-04-21 09:32:00,37.0,26.0,30.61,North,-999,-999.0,-999.0,64,-99.99,,,-99.99,,2013-04-21 13:32:00,
2013-04-21 09:42:00,37.0,26.0,30.61,North,-999,-999.0,-999.0,64,-99.99,,,-99.99,,2013-04-21 13:42:00,
2013-04-21 10:22:00,38.0,25.0,30.62,North,-999,-999.0,-999.0,59,-99.99,,,-99.99,,2013-04-21 14:22:00,
2013-04-21 10:32:00,38.0,25.0,30.62,North,-999,-999.0,-999.0,59,-99.99,,,-99.99,,2013-04-21 14:32:00,
2013-04-21 10:42:00,38.0,25.0,30.62,North,-999,-999.0,-999.0,59,-99.99,,,-99.99,,2013-04-21 14:42:00,
2013-04-21 11:22:00,41.0,23.0,30.62,North,-999,-999.0,-999.0,48,-99.99,,,-99.99,,2013-04-21 15:22:00,
2013-04-21 11:33:00,41.0,23.0,30.62,North,-999,-999.0,-999.0,48,-99.99,,,-99.99,,2013-04-21 15:33:00,
2013-04-21 11:43:00,41.0,23.0,30.62,North,-999,-999.0,-999.0,48,-99.99,,,-99.99,,2013-04-21 15:43:00,
2013-04-21 12:23:00,43.0,25.0,30.62,North,-999,-999.0,-999.0,49,-99.99,,,-99.99,,2013-04-21 16:23:00,
2013-04-21 12:33:00,43.0,25.0,30.62,North,-999,-999.0,-999.0,49,-99.99,,,-99.99,,2013-04-21 16:33:00,
2013-04-21 12:42:00,43.0,25.0,30.62,North,-999,-999.0,-999.0,49,-99.99,,,-99.99,,2013-04-21 16:42:00,
2013-04-21 13:23:00,45.0,25.0,30.60,North,-999,-999.0,-999.0,44,-99.99,,,-99.99,,2013-04-21 17:23:00,
2013-04-21 13:32:00,45.0,25.0,30.60,North,-999,-999.0,-999.0,44,-99.99,,,-99.99,,2013-04-21 17:32:00,
2013-04-21 13:42:00,45.0,25.0,30.60,North,-999,-999.0,-999.0,44,-99.99,,,-99.99,,2013-04-21 17:42:00,
2013-04-21 14:22:00,45.0,29.0,30.59,North,-999,-999.0,-999.0,51,-99.99,,,-99.99,,2013-04-21 18:22:00,
2013-04-21 14:33:00,45.0,29.0,30.59,North,-999,-999.0,-999.0,51,-99.99,,,-99.99,,2013-04-21 18:33:00,
2013-04-21 14:42:00,45.0,29.0,30.59,North,-999,-999.0,-999.0,51,-99.99,,,-99.99,,2013-04-21 18:42:00,
2013-04-21 15:22:00,46.0,30.0,30.57,North,-999,-999.0,-999.0,53,-99.99,,,-99.99,,2013-04-21 19:22:00,
2013-04-21 15:32:00,46.0,30.0,30.57,North,-999,-999.0,-999.0,53,-99.99,,,-99.99,,2013-04-21 19:32:00,
2013-04-21 15:42:00,46.0,30.0,30.57,North,-999,-999.0,-999.0,53,-99.99,,,-99.99,,2013-04-21 19:42:00,
2013-04-21 16:22:00,45.0,31.0,30.54,North,-999,-999.0,-999.0,56,-99.99,,,-99.99,,2013-04-21 20:22:00,
2013-04-21 16:32:00,45.0,31.0,30.54,North,-999,-999.0,-999.0,56,-99.99,,,-99.99,,2013-04-21 20:32:00,
2013-04-21 16:42:00,45.0,31.0,30.54,North,-999,-999.0,-999.0,56,-99.99,,,-99.99,,2013-04-21 20:42:00,
2013-04-21 17:22:00,43.0,27.0,30.52,North,-999,-999.0,-999.0,54,-99.99,,,-99.99,,2013-04-21 21:22:00,
2013-04-21 17:33:00,43.0,27.0,30.52,North,-999,-999.0,-999.0,54,-99.99,,,-99.99,,2013-04-21 21:33:00,
2013-04-21 17:43:00,43.0,27.0,30.52,North,-999,-999.0,-999.0,54,-99.99,,,-99.99,,2013-04-21 21:43:00,
2013-04-21 18:22:00,42.0,26.0,30.52,North,-999,-999.0,-999.0,52,-99.99,,,-99.99,,2013-04-21 22:22:00,
2013-04-21 18:33:00,42.0,26.0,30.52,North,-999,-999.0,-999.0,52,-99.99,,,-99.99,,2013-04-21 22:33:00,
2013-04-21 18:43:00,42.0,26.0,30.52,North,-999,-999.0,-999.0,52,-99.99,,,-99.99,,2013-04-21 22:43:00,
2013-04-21 19:22:00,41.0,27.0,30.51,North,-999,-999.0,-999.0,55,-99.99,,,-99.99,,2013-04-21 23:22:00,
2013-04-21 19:32:00,41.0,27.0,30.51,North,-999,-999.0,-999.0,55,-99.99,,,-99.99,,2013-04-21 23:32:00,
2013-04-21 19:42:00,41.0,27.0,30.51,North,-999,-999.0,-999.0,55,-99.99,,,-99.99,,2013-04-21 23:42:00,
2013-04-21 20:22:00,41.0,26.0,30.51,North,-999,-999.0,-999.0,56,-99.99,,,-99.99,,2013-04-22 00:22:00,
2013-04-21 20:32:00,41.0,26.0,30.51,North,-999,-999.0,-999.0,56,-99.99,,,-99.99,,2013-04-22 00:32:00,
2013-04-21 20:42:00,41.0,26.0,30.51,North,-999,-999.0,-999.0,56,-99.99,,,-99.99,,2013-04-22 00:42:00,
2013-04-21 21:22:00,40.0,29.0,30.49,North,-999,-999.0,-999.0,64,-99.99,,,-99.99,,2013-04-22 01:22:00,
2013-04-21 21:32:00,40.0,29.0,30.49,North,-999,-999.0,-999.0,64,-99.99,,,-99.99,,2013-04-22 01:32:00,
2013-04-21 21:42:00,40.0,29.0,30.49,North,-999,-999.0,-999.0,64,-99.99,,,-99.99,,2013-04-22 01:42:00,
2013-04-21 22:22:00,40.0,28.0,30.50,North,-999,-999.0,-999.0,61,-99.99,,,-99.99,,2013-04-22 02:22:00,
2013-04-21 22:32:00,40.0,28.0,30.50,North,-999,-999.0,-999.0,61,-99.99,,,-99.99,,2013-04-22 02:32:00,
2013-04-21 22:42:00,40.0,28.0,30.50,North,-999,-999.0,-999.0,61,-99.99,,,-99.99,,2013-04-22 02:42:00,
2013-04-21 23:22:00,40.0,25.0,30.50,North,-999,-999.0,-999.0,55,-99.99,,,-99.99,,2013-04-22 03:22:00,
2013-04-21 23:33:00,40.0,25.0,30.50,North,-999,-999.0,-999.0,55,-99.99,,,-99.99,,2013-04-22 03:33:00,
2013-04-21 23:43:00,40.0,25.0,30.50,North,-999,-999.0,-999.0,55,-99.99,,,-99.99,,2013-04-22 03:43:00,